createdAt,value
2023-02-28T00:01:35.922Z,3.30
2023-02-28T00:04:04.353Z,3.30
2023-02-28T00:06:34.154Z,3.10
2023-02-28T00:09:00.996Z,3.20
2023-02-28T00:11:28.248Z,3.10
2023-02-28T00:13:59.601Z,3.10
2023-02-28T00:16:27.678Z,3.10
2023-02-28T00:18:55.683Z,3.10
2023-02-28T00:21:22.811Z,3.00
2023-02-28T00:23:50.080Z,3.00
2023-02-28T00:26:17.203Z,3.00
2023-02-28T00:28:47.304Z,3.10
2023-02-28T00:31:19.162Z,3.00
2023-02-28T00:33:49.888Z,3.00
2023-02-28T00:36:18.751Z,3.10
2023-02-28T00:38:45.759Z,3.00
2023-02-28T00:41:17.343Z,2.90
2023-02-28T00:43:45.150Z,2.90
2023-02-28T00:46:13.576Z,2.90
2023-02-28T00:48:40.486Z,2.90
2023-02-28T00:51:07.269Z,2.90
2023-02-28T00:53:34.385Z,2.90
2023-02-28T00:56:03.717Z,2.90
2023-02-28T00:58:32.736Z,2.90
2023-02-28T01:01:01.628Z,2.90
2023-02-28T01:03:29.781Z,2.80
2023-02-28T01:05:57.217Z,2.80
2023-02-28T01:08:24.590Z,2.70
2023-02-28T01:10:51.672Z,2.80
2023-02-28T01:13:21.473Z,2.80
2023-02-28T01:15:54.050Z,2.80
2023-02-28T01:18:22.603Z,2.60
2023-02-28T01:20:52.947Z,2.50
2023-02-28T01:23:21.421Z,2.50
2023-02-28T01:25:48.397Z,2.40
2023-02-28T01:28:15.355Z,2.40
2023-02-28T01:30:42.537Z,2.50
2023-02-28T01:33:09.598Z,2.50
2023-02-28T01:35:38.650Z,2.50
2023-02-28T01:38:20.955Z,2.50
2023-02-28T01:40:49.040Z,2.50
2023-02-28T01:43:44.968Z,2.50
2023-02-28T01:46:15.124Z,2.50
2023-02-28T01:48:54.672Z,2.50
2023-02-28T01:51:28.370Z,2.60
2023-02-28T01:54:06.901Z,2.50
2023-02-28T01:56:37.523Z,2.40
2023-02-28T01:59:06.148Z,2.50
2023-02-28T02:01:37.042Z,2.40
2023-02-28T02:04:04.964Z,2.40
2023-02-28T02:06:41.081Z,2.40
2023-02-28T02:09:10.880Z,2.40
2023-02-28T02:11:41.709Z,2.40
2023-02-28T02:14:12.938Z,2.50
2023-02-28T02:16:48.882Z,2.50
2023-02-28T02:19:46.571Z,2.40
2023-02-28T02:22:56.076Z,2.30
2023-02-28T02:26:13.260Z,2.30
2023-02-28T02:29:09.463Z,2.20
2023-02-28T02:32:06.322Z,2.10
2023-02-28T02:34:44.450Z,2.10
2023-02-28T02:37:32.357Z,2.10
2023-02-28T02:40:14.729Z,2.20
2023-02-28T02:43:03.003Z,2.10
2023-02-28T02:45:37.716Z,2.10
2023-02-28T02:48:10.832Z,2.20
2023-02-28T02:50:43.963Z,2.00
2023-02-28T02:53:13.544Z,2.10
2023-02-28T02:55:45.888Z,2.20
2023-02-28T02:58:17.855Z,2.20
2023-02-28T03:00:54.281Z,2.10
2023-02-28T03:03:30.026Z,2.00
2023-02-28T03:06:00.019Z,1.90
2023-02-28T03:08:28.170Z,1.90
2023-02-28T03:11:02.102Z,2.00
2023-02-28T03:14:06.661Z,2.00
2023-02-28T03:17:09.251Z,1.90
2023-02-28T03:20:09.122Z,1.90
2023-02-28T03:23:09.258Z,1.80
2023-02-28T03:25:53.659Z,1.80
2023-02-28T03:28:34.088Z,1.80
2023-02-28T03:31:22.187Z,1.80
2023-02-28T03:34:02.254Z,1.80
2023-02-28T03:36:34.250Z,1.80
2023-02-28T03:39:06.463Z,1.90
2023-02-28T03:41:48.816Z,1.90
2023-02-28T03:44:31.397Z,1.80
2023-02-28T03:47:08.548Z,1.70
2023-02-28T03:49:55.746Z,1.80
2023-02-28T03:52:27.360Z,1.80
2023-02-28T03:55:03.608Z,1.80
2023-02-28T03:57:41.033Z,1.80
2023-02-28T04:00:17.353Z,1.80
2023-02-28T04:02:45.489Z,1.80
2023-02-28T04:05:12.747Z,1.80
2023-02-28T04:07:40.596Z,1.70
2023-02-28T04:10:08.062Z,1.60
2023-02-28T04:12:35.061Z,1.70
2023-02-28T04:15:03.261Z,1.80
2023-02-28T04:17:31.146Z,1.80
2023-02-28T04:20:01.579Z,1.60
2023-02-28T04:22:30.436Z,1.70
2023-02-28T04:24:57.407Z,1.60
2023-02-28T04:27:26.507Z,1.50
2023-02-28T04:29:54.682Z,1.70
2023-02-28T04:32:22.080Z,1.60
2023-02-28T04:34:49.016Z,1.60
2023-02-28T04:37:19.986Z,1.60
2023-02-28T04:39:47.483Z,1.50
2023-02-28T04:42:14.622Z,1.40
2023-02-28T04:44:41.539Z,1.40
2023-02-28T04:47:15.924Z,1.40
2023-02-28T04:49:45.975Z,1.40
2023-02-28T04:52:14.856Z,1.40
2023-02-28T04:54:41.735Z,1.40
2023-02-28T04:57:08.562Z,1.50
2023-02-28T04:59:35.389Z,1.50
2023-02-28T05:02:07.775Z,1.50
2023-02-28T05:04:35.200Z,1.50
2023-02-28T05:07:04.056Z,1.50
2023-02-28T05:09:31.168Z,1.50
2023-02-28T05:12:00.184Z,1.60
2023-02-28T05:14:28.036Z,1.50
2023-02-28T05:16:54.868Z,1.60
2023-02-28T05:19:22.756Z,1.60
2023-02-28T05:21:56.059Z,1.60
2023-02-28T05:24:23.882Z,1.70
2023-02-28T05:26:54.071Z,1.70
2023-02-28T05:29:22.624Z,1.80
2023-02-28T05:31:49.661Z,1.90
2023-02-28T05:34:17.081Z,1.90
2023-02-28T05:36:44.365Z,1.90
2023-02-28T05:39:14.088Z,1.90
2023-02-28T05:41:43.291Z,1.90
2023-02-28T05:44:11.098Z,1.80
2023-02-28T05:46:38.009Z,1.90
2023-02-28T05:49:06.573Z,1.90
2023-02-28T05:51:37.456Z,1.90
2023-02-28T05:54:04.537Z,1.90
2023-02-28T05:56:33.279Z,1.90
2023-02-28T05:59:00.165Z,1.90
2023-02-28T06:01:36.832Z,1.90
2023-02-28T06:04:09.882Z,2.10
2023-02-28T06:06:43.127Z,2.10
2023-02-28T06:09:10.377Z,2.10
2023-02-28T06:11:40.671Z,2.00
2023-02-28T06:14:07.897Z,2.00
2023-02-28T06:16:36.685Z,2.10
2023-02-28T06:19:05.212Z,2.20
2023-02-28T06:21:33.314Z,2.10
2023-02-28T06:24:00.570Z,2.10
2023-02-28T06:26:28.576Z,2.10
2023-02-28T06:28:56.850Z,2.20
2023-02-28T06:31:25.564Z,2.10
2023-02-28T06:33:54.688Z,2.20
2023-02-28T06:36:22.362Z,2.20
2023-02-28T06:38:52.591Z,2.20
2023-02-28T06:41:20.542Z,2.30
2023-02-28T06:43:48.693Z,2.40
2023-02-28T06:46:17.656Z,2.40
2023-02-28T06:48:46.241Z,2.30
2023-02-28T06:51:17.190Z,2.30
2023-02-28T06:53:46.149Z,2.20
2023-02-28T06:56:16.468Z,2.20
2023-02-28T06:58:46.671Z,2.20
2023-02-28T07:01:16.094Z,2.30
2023-02-28T07:03:43.070Z,2.40
2023-02-28T07:06:10.458Z,2.40
2023-02-28T07:08:42.222Z,2.50
2023-02-28T07:11:10.343Z,2.60
2023-02-28T07:13:39.202Z,2.60
2023-02-28T07:16:10.768Z,2.60
2023-02-28T07:18:41.591Z,2.60
2023-02-28T07:21:11.394Z,2.70
2023-02-28T07:23:40.549Z,2.90
2023-02-28T07:26:12.300Z,2.80
2023-02-28T07:28:39.290Z,2.70
2023-02-28T07:31:08.536Z,2.80
2023-02-28T07:33:36.444Z,2.80
2023-02-28T07:36:12.491Z,2.80
2023-02-28T07:38:40.793Z,2.90
2023-02-28T07:41:11.279Z,2.90
2023-02-28T07:43:38.263Z,2.90
2023-02-28T07:46:08.176Z,3.00
2023-02-28T07:48:35.475Z,3.00
2023-02-28T07:51:02.837Z,3.00
2023-02-28T07:53:30.642Z,3.10
2023-02-28T07:55:58.701Z,3.00
2023-02-28T07:58:26.908Z,3.10
2023-02-28T08:00:54.145Z,3.20
2023-02-28T08:03:31.960Z,3.20
2023-02-28T08:06:00.325Z,3.20
2023-02-28T08:08:30.242Z,3.20
2023-02-28T08:10:58.716Z,3.20
2023-02-28T08:13:25.771Z,3.40
2023-02-28T08:15:54.776Z,3.40
2023-02-28T08:18:22.149Z,3.40
2023-02-28T08:20:50.754Z,3.30
2023-02-28T08:23:18.030Z,3.40
2023-02-28T08:25:45.771Z,3.40
2023-02-28T08:28:14.668Z,3.40
2023-02-28T08:30:42.213Z,3.50
2023-02-28T08:33:10.397Z,3.40
2023-02-28T08:35:38.662Z,3.40
2023-02-28T08:38:07.531Z,3.50
2023-02-28T08:40:36.486Z,3.60
2023-02-28T08:43:04.539Z,3.60
2023-02-28T08:45:46.557Z,3.60
2023-02-28T08:48:14.556Z,3.60
2023-02-28T08:51:05.969Z,3.70
2023-02-28T08:53:37.460Z,3.70
2023-02-28T08:56:08.449Z,3.50
2023-02-28T08:58:37.738Z,3.60
2023-02-28T09:01:15.928Z,3.60
2023-02-28T09:03:43.963Z,3.60
2023-02-28T09:06:12.374Z,3.50
2023-02-28T09:08:42.205Z,3.50
2023-02-28T09:11:10.059Z,3.60
2023-02-28T09:13:37.943Z,3.60
2023-02-28T09:16:08.738Z,3.60
2023-02-28T09:18:38.448Z,3.60
2023-02-28T09:21:08.371Z,3.70
2023-02-28T09:23:39.232Z,3.80
2023-02-28T09:26:08.254Z,3.90
2023-02-28T09:28:36.256Z,3.90
2023-02-28T09:31:05.628Z,3.90
2023-02-28T09:33:33.040Z,3.90
2023-02-28T09:36:04.989Z,4.00
2023-02-28T09:38:36.930Z,4.10
2023-02-28T09:41:42.450Z,3.90
2023-02-28T09:47:09.212Z,3.90
2023-02-28T09:49:45.113Z,3.90
2023-02-28T09:52:31.381Z,4.00
2023-02-28T09:55:21.009Z,4.00
2023-02-28T09:58:01.298Z,4.00
2023-02-28T10:00:35.136Z,4.00
2023-02-28T10:03:37.023Z,4.20
2023-02-28T10:06:12.192Z,4.30
2023-02-28T10:08:52.077Z,4.40
2023-02-28T10:11:21.708Z,4.40
2023-02-28T10:14:02.940Z,4.50
2023-02-28T10:16:33.840Z,4.30
2023-02-28T10:19:06.814Z,4.50
2023-02-28T10:21:42.279Z,4.50
2023-02-28T10:24:21.299Z,4.60
2023-02-28T10:26:52.430Z,4.50
2023-02-28T10:29:22.121Z,4.60
2023-02-28T10:31:50.222Z,4.50
2023-02-28T10:34:20.450Z,4.60
2023-02-28T10:40:03.469Z,4.90
2023-02-28T10:48:32.299Z,4.80
2023-02-28T10:51:08.574Z,4.90
2023-02-28T10:59:43.757Z,5.10
2023-02-28T11:05:32.999Z,5.20
2023-02-28T11:08:20.391Z,5.80
2023-02-28T11:11:02.982Z,6.50
2023-02-28T11:13:38.203Z,6.60
2023-02-28T11:16:12.790Z,7.20
2023-02-28T11:18:47.838Z,8.10
2023-02-28T11:21:24.028Z,8.50
2023-02-28T11:23:56.144Z,8.60
2023-02-28T11:26:44.870Z,8.80
2023-02-28T11:29:23.005Z,9.00
2023-02-28T11:32:11.113Z,9.30
2023-02-28T11:34:42.202Z,9.60
2023-02-28T11:37:16.656Z,9.50
2023-02-28T11:39:48.725Z,9.70
2023-02-28T11:42:43.869Z,9.60
2023-02-28T11:45:35.177Z,10.10
2023-02-28T11:48:13.713Z,9.60
2023-02-28T11:51:11.645Z,8.90
2023-02-28T11:54:11.338Z,9.20
2023-02-28T11:57:02.230Z,10.00
2023-02-28T11:59:39.458Z,10.00
2023-02-28T12:02:29.588Z,9.60
2023-02-28T12:05:13.072Z,9.20
2023-02-28T12:07:48.746Z,9.20
2023-02-28T12:10:38.380Z,9.20
2023-02-28T12:13:20.712Z,10.00
2023-02-28T12:16:22.011Z,10.40
2023-02-28T12:18:54.274Z,11.00
2023-02-28T12:22:02.228Z,11.20
2023-02-28T12:24:46.611Z,11.50
2023-02-28T12:27:24.403Z,11.70
2023-02-28T12:30:05.650Z,10.90
2023-02-28T12:32:41.024Z,10.30
2023-02-28T12:35:16.882Z,11.40
2023-02-28T12:38:13.957Z,12.50
2023-02-28T12:41:07.983Z,12.70
2023-02-28T12:43:43.751Z,12.60
2023-02-28T12:46:33.495Z,12.80
2023-02-28T12:49:09.297Z,12.20
2023-02-28T12:51:37.982Z,11.40
2023-02-28T12:54:26.136Z,11.50
2023-02-28T12:56:59.099Z,11.80
2023-02-28T12:59:47.291Z,12.20
2023-02-28T13:02:33.593Z,11.50
2023-02-28T13:05:30.214Z,12.20
2023-02-28T13:08:12.495Z,12.00
2023-02-28T13:10:48.802Z,12.00
2023-02-28T13:13:23.595Z,12.10
2023-02-28T13:16:04.925Z,12.10
2023-02-28T13:18:43.029Z,12.10
2023-02-28T13:21:32.362Z,12.60
2023-02-28T13:24:05.773Z,12.40
2023-02-28T13:26:38.851Z,11.90
2023-02-28T13:29:11.885Z,11.80
2023-02-28T13:32:07.000Z,11.30
2023-02-28T13:34:40.459Z,10.60
2023-02-28T13:37:22.886Z,9.70
2023-02-28T13:39:57.306Z,9.10
2023-02-28T13:42:32.364Z,8.70
2023-02-28T13:45:05.535Z,8.30
2023-02-28T13:48:01.792Z,7.90
2023-02-28T13:50:41.570Z,7.70
2023-02-28T13:53:14.482Z,7.40
2023-02-28T13:56:01.034Z,7.10
2023-02-28T13:59:16.724Z,6.90
2023-02-28T14:02:30.091Z,6.90
2023-02-28T14:05:16.683Z,7.00
2023-02-28T14:10:44.382Z,6.90
2023-02-28T14:13:53.094Z,6.80
2023-02-28T14:16:29.915Z,6.80
2023-02-28T14:19:16.323Z,6.80
2023-02-28T14:22:30.329Z,6.70
2023-02-28T14:26:11.388Z,6.60
2023-02-28T14:34:06.076Z,6.60
2023-02-28T14:36:47.094Z,6.70
2023-02-28T14:39:21.796Z,6.80
2023-02-28T14:41:53.025Z,6.70
2023-02-28T14:44:31.792Z,6.70
2023-02-28T14:47:06.853Z,6.70
2023-02-28T14:49:40.059Z,6.70
2023-02-28T14:52:19.101Z,6.40
2023-02-28T14:54:48.615Z,6.20
2023-02-28T14:57:43.215Z,6.40
2023-02-28T15:00:16.218Z,6.30
2023-02-28T15:02:46.373Z,6.40
2023-02-28T15:08:30.493Z,6.30
2023-02-28T15:11:03.826Z,6.20
2023-02-28T15:13:49.707Z,6.20
2023-02-28T15:16:22.619Z,6.10
2023-02-28T15:19:01.339Z,6.20
2023-02-28T15:21:42.886Z,6.30
2023-02-28T15:24:43.464Z,6.30
2023-02-28T15:27:27.913Z,6.30
2023-02-28T15:29:59.848Z,6.20
2023-02-28T15:32:33.560Z,6.20
2023-02-28T15:38:22.748Z,6.00
2023-02-28T15:40:59.099Z,6.00
2023-02-28T15:43:32.666Z,6.10
2023-02-28T15:46:26.773Z,6.20
2023-02-28T15:48:57.841Z,6.40
2023-02-28T15:51:40.608Z,6.50
2023-02-28T15:54:13.472Z,6.60
2023-02-28T15:56:51.282Z,6.50
2023-02-28T15:59:25.186Z,6.30
2023-02-28T16:02:20.779Z,6.10
2023-02-28T16:04:58.200Z,6.20
2023-02-28T16:07:35.456Z,6.50
2023-02-28T16:10:17.219Z,6.40
2023-02-28T16:12:45.120Z,6.40
2023-02-28T16:15:20.478Z,6.40
2023-02-28T16:17:50.758Z,6.40
2023-02-28T16:20:26.518Z,6.30
2023-02-28T16:22:55.533Z,6.30
2023-02-28T16:25:34.986Z,6.30
2023-02-28T16:28:39.736Z,6.40
2023-02-28T16:31:15.731Z,6.50
2023-02-28T16:33:43.844Z,6.50
2023-02-28T16:36:20.260Z,6.20
2023-02-28T16:38:57.070Z,6.20
2023-02-28T16:41:28.966Z,6.20
2023-02-28T16:44:10.993Z,6.20
2023-02-28T16:46:38.313Z,6.10
2023-02-28T16:49:11.824Z,6.10
2023-02-28T16:51:44.125Z,6.00
2023-02-28T16:54:15.193Z,6.00
2023-02-28T16:56:48.994Z,6.00
2023-02-28T16:59:25.098Z,6.00
2023-02-28T17:04:40.821Z,5.90
2023-02-28T17:10:04.769Z,5.80
2023-02-28T17:12:33.337Z,5.80
2023-02-28T17:17:58.632Z,5.70
2023-02-28T17:20:29.314Z,5.80
2023-02-28T17:26:07.661Z,5.60
2023-02-28T17:28:38.733Z,5.60
2023-02-28T17:31:11.841Z,5.60
2023-02-28T17:33:39.380Z,5.50
2023-02-28T17:36:23.530Z,5.50
2023-02-28T17:38:56.282Z,5.40
2023-02-28T17:41:36.964Z,5.50
2023-02-28T17:44:07.218Z,5.50
2023-02-28T17:46:35.741Z,5.50
2023-02-28T17:49:06.974Z,5.60
2023-02-28T17:51:40.262Z,5.50
2023-02-28T17:54:09.132Z,5.50
2023-02-28T18:05:12.366Z,5.20
2023-02-28T18:07:44.420Z,5.20
2023-02-28T18:10:21.861Z,5.30
2023-02-28T18:12:55.441Z,5.20
2023-02-28T18:15:38.879Z,5.20
2023-02-28T18:28:58.836Z,5.10
2023-02-28T18:32:23.289Z,5.20
2023-02-28T18:34:55.202Z,5.10
2023-02-28T18:37:28.251Z,5.10
2023-02-28T18:39:59.497Z,5.10
2023-02-28T18:45:51.636Z,5.30
2023-02-28T18:48:51.366Z,5.20
2023-02-28T18:51:28.391Z,5.10
2023-02-28T18:54:01.572Z,5.10
2023-02-28T18:56:33.698Z,5.00
2023-02-28T18:59:02.193Z,5.00
2023-02-28T19:01:32.317Z,5.10
2023-02-28T19:04:40.049Z,5.00
2023-02-28T19:07:34.987Z,5.00
2023-02-28T19:10:23.064Z,5.00
2023-02-28T19:12:59.046Z,4.90
2023-02-28T19:18:54.886Z,4.90
2023-02-28T19:21:37.360Z,4.80
2023-02-28T19:24:06.122Z,4.80
2023-02-28T19:35:24.947Z,4.50
2023-02-28T19:38:22.631Z,4.60
2023-02-28T19:41:04.263Z,4.70
2023-02-28T19:43:46.084Z,4.70
2023-02-28T19:46:21.264Z,4.60
2023-02-28T19:48:52.130Z,4.60
2023-02-28T19:51:19.821Z,4.50
2023-02-28T19:53:49.399Z,4.60
2023-02-28T19:56:16.659Z,4.50
2023-02-28T19:58:43.953Z,4.50
2023-02-28T20:01:22.275Z,4.50
2023-02-28T20:03:52.892Z,4.60
2023-02-28T20:06:47.533Z,4.60
2023-02-28T20:09:19.737Z,4.60
2023-02-28T20:12:25.089Z,4.50
2023-02-28T20:14:58.008Z,4.50
2023-02-28T20:17:26.564Z,4.50
2023-02-28T20:19:55.735Z,4.60
2023-02-28T20:22:23.086Z,4.60
2023-02-28T20:24:53.372Z,4.60
2023-02-28T20:27:20.421Z,4.50
2023-02-28T20:29:47.831Z,4.60
2023-02-28T20:32:14.990Z,4.60
2023-02-28T20:34:49.157Z,4.50
2023-02-28T20:37:19.800Z,4.50
2023-02-28T20:39:47.907Z,4.30
2023-02-28T20:42:16.335Z,4.20
2023-02-28T20:44:46.358Z,4.30
2023-02-28T20:47:13.974Z,4.30
2023-02-28T20:49:47.908Z,4.30
2023-02-28T20:52:16.481Z,4.20
2023-02-28T20:54:43.465Z,4.30
2023-02-28T20:57:11.006Z,4.30
2023-02-28T20:59:41.217Z,4.40
2023-02-28T21:02:09.963Z,4.40
2023-02-28T21:04:36.916Z,4.40
2023-02-28T21:07:04.546Z,4.30
2023-02-28T21:09:32.040Z,4.20
2023-02-28T21:12:01.015Z,4.10
2023-02-28T21:14:30.804Z,4.10
2023-02-28T21:16:58.017Z,4.10
2023-02-28T21:19:24.986Z,4.10
2023-02-28T21:21:59.324Z,4.20
2023-02-28T21:24:26.327Z,4.10
2023-02-28T21:26:55.130Z,4.10
2023-02-28T21:29:22.575Z,4.00
2023-02-28T21:31:52.238Z,4.10
2023-02-28T21:34:19.655Z,3.90
2023-02-28T21:36:48.169Z,3.90
2023-02-28T21:39:29.181Z,4.10
2023-02-28T21:42:04.453Z,4.10
2023-02-28T21:44:35.068Z,4.10
2023-02-28T21:47:10.915Z,4.00
2023-02-28T21:49:39.820Z,4.00
2023-02-28T21:52:07.935Z,4.00
2023-02-28T21:54:37.011Z,3.90
2023-02-28T21:57:07.037Z,3.90
2023-02-28T21:59:34.536Z,3.90
2023-02-28T22:02:06.032Z,3.90
2023-02-28T22:04:33.363Z,3.90
2023-02-28T22:07:02.719Z,3.90
2023-02-28T22:09:32.539Z,3.80
2023-02-28T22:12:00.660Z,3.60
2023-02-28T22:14:28.910Z,3.60
2023-02-28T22:17:03.931Z,3.60
2023-02-28T22:19:30.932Z,3.70
2023-02-28T22:22:07.069Z,3.70
2023-02-28T22:24:38.381Z,3.70
2023-02-28T22:27:05.314Z,3.70
2023-02-28T22:29:32.530Z,3.70
2023-02-28T22:32:03.048Z,3.70
2023-02-28T22:34:33.003Z,3.60
2023-02-28T22:37:01.985Z,3.60
2023-02-28T22:39:29.218Z,3.60
2023-02-28T22:41:57.205Z,3.60
2023-02-28T22:44:31.475Z,3.70
2023-02-28T22:46:59.632Z,3.80
2023-02-28T22:49:26.664Z,3.70
2023-02-28T22:51:55.281Z,3.60
2023-02-28T22:54:22.849Z,3.60
2023-02-28T22:56:49.735Z,3.50
2023-02-28T22:59:16.653Z,3.40
2023-02-28T23:01:44.911Z,3.40
2023-02-28T23:04:12.812Z,3.30
2023-02-28T23:06:42.690Z,3.40
2023-02-28T23:09:18.393Z,3.40
2023-02-28T23:11:48.934Z,3.30
2023-02-28T23:14:17.431Z,3.40
2023-02-28T23:16:54.861Z,3.40
2023-02-28T23:19:26.703Z,3.30
2023-02-28T23:21:54.042Z,3.30
2023-02-28T23:24:23.938Z,3.30
2023-02-28T23:26:53.738Z,3.30
2023-02-28T23:29:25.223Z,3.30
2023-02-28T23:31:52.794Z,3.30
2023-02-28T23:34:32.265Z,3.20
2023-02-28T23:37:01.926Z,3.20
2023-02-28T23:39:31.227Z,3.30
2023-02-28T23:41:58.880Z,3.30
2023-02-28T23:44:26.873Z,3.20
2023-02-28T23:46:54.915Z,3.10
2023-02-28T23:49:22.214Z,3.10
2023-02-28T23:51:51.125Z,3.10
2023-02-28T23:54:19.111Z,3.10
2023-02-28T23:56:46.568Z,3.10
2023-02-28T23:59:13.449Z,3.10
